Norfolk, NE (68701)

23:48 CDT le 25 avril 2015 (GMT -0500)
West Central - Norfolk | | Change Station
CLOSE
Current Station
Stations météorologiques personnelles
Location: Norfolk, NE
Altitude: 1640 ft
Stations météo à proximité

Alt. 1640 ft 42.04 °N, 97.45 °W | Updated 21 seconds ago

Couvert
Couvert
48.0 ° F
Paraît 46 ° F
N
4.3
Vent Variable Vent de ESE
Gusts 6.9 mph

Aujourd'hui
Haut(e) -- | Bas -- ° F
--% Risque de précip.
Hier
Haut(e) -- | Bas -- ° F
Precip. -- pouce
6:34 AM 8:21 PM
Premier quartier, 52% visible
Pression 29.91 pouce
Visibilité 10.0 Miles terrestres
Nuages Couvert 3700 ft
Refroidissement éolien 46 ° F
Point de rosée 40 ° F
Humidité 74%
Précipitations 0.00 pouce
Profondeur de la couche neigeuse Non disponible.
UV 0 sur 12
Pollen 9.50 sur 12
Qualité de l'air Non disponible.
Flu Activity Local Activity
METAR KOFK 260356Z AUTO 08009KT 10SM OVC037 11/06 A2990 RMK AO2 SLP127 T01060056 TSNO

More Conditions Fewer Conditions

Pression 29.91 pouce
Visibilité 10.0 Miles terrestres
Nuages Couvert 3700 ft
Refroidissement éolien 46 ° F
Point de rosée 40 ° F
Humidité 74%
Précipitations 0.00 pouce
Profondeur de la couche neigeuse Non disponible.
UV 0 sur 12
Pollen 9.50 sur 12
Qualité de l'air Non disponible.
Flu Activity Local Activity
METAR KOFK 260356Z AUTO 08009KT 10SM OVC037 11/06 A2990 RMK AO2 SLP127 T01060056 TSNO

More Conditions Fewer Conditions

The full scope of the disaster following a powerful 7.8-magnitude earthquake in Nepal may not come into view for days, but global charities are already sending emergency aid. Click to see how you can help.

10-Day Weather Forecast

Almanac

Astronomie

Apr. 25, 2015 Lever Coucher
Temps réel
Crépuscule civil
Crépuscule nautique
Crépuscule astronomique
Lune
Durée de lumière visible
Longueur du jour
Tomorrow will be .
, % of the Moon is Illuminated

Extrêmes aujourd'hui

State Highs State Lows

Community

WunderPhotos

Upload Photos

1,816,938 Photos téléchargées !

WunderBlogs® & News

Nearby

Qualité de l'air

  Qualité de l'air Indice de la qualité de l'air Polluant
Not available.

Épaisseur de neige

Station Depth Altitude

Activité sismique

Ville Distance Mag. Time & Date
Minimum magnitude displayed is 2.5.

Températures des eaux côtières

Lieu Température

Stations

Stations météo à proximité

Emplacement de la station Température Refroidissement éolien Point de rosée Humidité Vent Precip. Alt. Mise à jour Type